Time;durP1;ratioP1;P1;durP2;ratioP2;P2;SDS_P1;SDS_P2;PMS_P1;PMS_P2;Temp;Humidity;BMP_temperature;BMP_pressure;BME280_temperature;BME280_humidity;BME280_pressure;Samples;Min_cycle;Max_cycle;Signal;HPM_P1;HPM_P2
2022/06/08 00:02:37;;;;;;;11.10;3.53;;;;;;;;;;4986640;28;20350;-77
2022/06/08 00:05:05;;;;;;;9.75;3.88;;;;;;;;;;4986943;28;20827;-76
2022/06/08 00:07:31;;;;;;;9.32;3.50;;;;;;;;;;4967531;28;20258;-76
2022/06/08 00:09:59;;;;;;;10.60;4.25;;;;;;;;;;4985350;28;20026;-77
2022/06/08 00:12:27;;;;;;;9.27;3.33;;;;;;;;;;4989312;28;20037;-76
2022/06/08 00:14:55;;;;;;;11.80;4.15;;;;;;;;;;4980769;28;20040;-75
2022/06/08 00:17:22;;;;;;;10.73;3.78;;;;;;;;;;4988259;28;20582;-77
2022/06/08 00:19:49;;;;;;;12.60;4.03;;;;;;;;;;4982549;28;21746;-78
2022/06/08 00:22:17;;;;;;;12.75;3.85;;;;;;;;;;4985659;28;20157;-78
2022/06/08 00:24:45;;;;;;;9.75;4.20;;;;;;;;;;4984801;28;20503;-77
2022/06/08 00:27:12;;;;;;;10.07;3.80;;;;;;;;;;4986301;28;20022;-77
2022/06/08 00:29:40;;;;;;;11.35;4.43;;;;;;;;;;4966040;28;20119;-77
2022/06/08 00:32:08;;;;;;;10.38;3.97;;;;;;;;;;4968217;28;20213;-77
2022/06/08 00:34:36;;;;;;;11.02;4.25;;;;;;;;;;4981462;28;20041;-76
2022/06/08 00:37:03;;;;;;;10.50;4.00;;;;;;;;;;4985926;28;20117;-77
2022/06/08 00:39:30;;;;;;;10.95;4.00;;;;;;;;;;4971459;28;20030;-76
2022/06/08 00:42:05;;;;;;;11.13;4.18;;;;;;;;;;4986044;28;20470;-76
2022/06/08 00:44:40;;;;;;;13.43;4.15;;;;;;;;;;4970284;28;20559;-75
2022/06/08 00:47:09;;;;;;;11.88;3.70;;;;;;;;;;4970389;28;20113;-76
2022/06/08 00:49:51;;;;;;;10.80;4.18;;;;;;;;;;4981878;28;20033;-76
2022/06/08 00:52:19;;;;;;;11.95;4.05;;;;;;;;;;4981927;28;20034;-78
2022/06/08 00:54:48;;;;;;;10.80;4.15;;;;;;;;;;4968615;28;20117;-75
2022/06/08 00:57:20;;;;;;;13.02;3.95;;;;;;;;;;4984870;28;20045;-77
2022/06/08 00:59:55;;;;;;;11.43;4.18;;;;;;;;;;4982250;28;20089;-78
2022/06/08 01:02:21;;;;;;;12.35;4.07;;;;;;;;;;4983842;28;20038;-75
2022/06/08 01:04:47;;;;;;;9.18;3.58;;;;;;;;;;4981979;28;20554;-76
2022/06/08 01:07:17;;;;;;;10.65;4.25;;;;;;;;;;4971340;28;20037;-76
2022/06/08 01:09:43;;;;;;;11.25;4.20;;;;;;;;;;4970889;28;20665;-78
2022/06/08 01:12:19;;;;;;;12.48;3.90;;;;;;;;;;4968438;28;20021;-76
2022/06/08 01:14:47;;;;;;;10.07;4.13;;;;;;;;;;4984659;28;20318;-76
2022/06/08 01:17:15;;;;;;;12.60;3.65;;;;;;;;;;4970274;28;20098;-75
2022/06/08 01:19:44;;;;;;;12.00;4.25;;;;;;;;;;4981325;28;20042;-76
2022/06/08 01:22:11;;;;;;;10.45;3.97;;;;;;;;;;4991616;28;20092;-77
2022/06/08 01:24:38;;;;;;;12.25;4.30;;;;;;;;;;4983385;28;20252;-76
2022/06/08 01:27:10;;;;;;;12.52;4.10;;;;;;;;;;4968970;28;20018;-75
2022/06/08 01:29:39;;;;;;;12.15;4.07;;;;;;;;;;4967065;28;20033;-75
2022/06/08 01:32:12;;;;;;;15.80;4.15;;;;;;;;;;4983403;28;20034;-76
2022/06/08 01:34:38;;;;;;;13.43;4.00;;;;;;;;;;4965651;28;20092;-75
2022/06/08 01:37:13;;;;;;;11.30;4.25;;;;;;;;;;4987054;28;20504;-75
2022/06/08 01:40:12;;;;;;;9.90;3.67;;;;;;;;;;4963661;28;20030;-76
2022/06/08 01:42:44;;;;;;;10.40;3.80;;;;;;;;;;4897670;29;20191;-76
2022/06/08 01:45:28;;;;;;;11.45;3.83;;;;;;;;;;4914729;29;20042;-76
2022/06/08 01:48:02;;;;;;;11.75;3.58;;;;;;;;;;4896569;29;20123;-76
2022/06/08 01:50:47;;;;;;;12.25;3.60;;;;;;;;;;4890367;29;20456;-75
2022/06/08 01:53:33;;;;;;;16.92;7.15;;;;;;;;;;4907404;29;20045;-73
2022/06/08 01:56:04;;;;;;;27.48;18.50;;;;;;;;;;4899377;29;20157;-75
2022/06/08 01:58:39;;;;;;;18.50;10.15;;;;;;;;;;4900803;29;20047;-75
2022/06/08 02:01:28;;;;;;;17.85;6.53;;;;;;;;;;4870497;29;20032;-75
2022/06/08 02:04:25;;;;;;;12.27;4.90;;;;;;;;;;4888061;29;20041;-75
2022/06/08 02:06:58;;;;;;;12.48;3.78;;;;;;;;;;4861285;29;20103;-75
2022/06/08 02:09:35;;;;;;;10.40;3.85;;;;;;;;;;4892116;29;20619;-75
2022/06/08 02:12:05;;;;;;;12.57;3.85;;;;;;;;;;4871229;29;20621;-76
2022/06/08 02:14:47;;;;;;;10.13;3.60;;;;;;;;;;4886681;29;20035;-75
2022/06/08 02:17:32;;;;;;;11.25;3.45;;;;;;;;;;4878151;28;20028;-76
2022/06/08 02:20:03;;;;;;;11.52;3.65;;;;;;;;;;4979282;28;20145;-74
2022/06/08 02:22:39;;;;;;;12.07;3.50;;;;;;;;;;4946267;28;20039;-75
2022/06/08 02:25:15;;;;;;;12.25;3.85;;;;;;;;;;4964046;28;20034;-75
2022/06/08 02:28:08;;;;;;;14.73;3.53;;;;;;;;;;4966794;28;20034;-75
2022/06/08 02:30:56;;;;;;;11.52;3.70;;;;;;;;;;4924456;28;20054;-76
2022/06/08 02:36:29;;;;;;;12.85;4.30;;;;;;;;;;4927621;29;20122;-76
2022/06/08 02:39:29;;;;;;;12.13;3.75;;;;;;;;;;4925021;29;20035;-76
2022/06/08 02:41:59;;;;;;;10.52;3.47;;;;;;;;;;4853822;29;20048;-76
2022/06/08 02:44:28;;;;;;;9.13;3.65;;;;;;;;;;4867294;29;20156;-76
2022/06/08 02:47:04;;;;;;;10.90;3.90;;;;;;;;;;4869433;29;20515;-76
2022/06/08 02:49:35;;;;;;;8.93;3.47;;;;;;;;;;4866729;29;20042;-77
2022/06/08 02:52:04;;;;;;;10.43;3.75;;;;;;;;;;4867372;29;20041;-76
2022/06/08 02:54:31;;;;;;;9.25;3.65;;;;;;;;;;4865923;29;20629;-77
2022/06/08 02:56:57;;;;;;;10.07;3.63;;;;;;;;;;4868620;29;20442;-76
2022/06/08 02:59:41;;;;;;;11.65;4.28;;;;;;;;;;4892945;29;20119;-76
2022/06/08 03:02:07;;;;;;;11.43;4.20;;;;;;;;;;4895109;29;20062;-75
2022/06/08 03:04:56;;;;;;;14.38;4.30;;;;;;;;;;4880451;29;20139;-75
2022/06/08 03:07:34;;;;;;;10.60;3.95;;;;;;;;;;4878287;29;20395;-75
2022/06/08 03:10:03;;;;;;;12.50;4.18;;;;;;;;;;4875741;29;20040;-75
2022/06/08 03:12:40;;;;;;;10.57;3.78;;;;;;;;;;4886140;29;20450;-75
2022/06/08 03:15:07;;;;;;;11.50;3.72;;;;;;;;;;4889002;29;20100;-76
2022/06/08 03:17:35;;;;;;;13.07;4.03;;;;;;;;;;4904128;28;20043;-77
2022/06/08 03:20:01;;;;;;;11.27;4.00;;;;;;;;;;4918809;28;20042;-75
2022/06/08 03:22:31;;;;;;;9.00;3.72;;;;;;;;;;4925256;29;20039;-76
2022/06/08 03:24:57;;;;;;;11.30;3.92;;;;;;;;;;4926215;28;20074;-76
2022/06/08 03:27:24;;;;;;;11.45;3.83;;;;;;;;;;4910041;29;20083;-75
2022/06/08 03:29:50;;;;;;;13.40;4.35;;;;;;;;;;4933165;28;20521;-75
2022/06/08 03:32:16;;;;;;;12.02;4.28;;;;;;;;;;4909004;29;20047;-75
2022/06/08 03:34:42;;;;;;;;;;;;;;;;;;4906590;29;20043;-75
2022/06/08 03:37:09;;;;;;;13.18;4.15;;;;;;;;;;4902954;29;19910;-75
2022/06/08 03:39:35;;;;;;;12.00;4.00;;;;;;;;;;4907639;28;20031;-76
2022/06/08 03:42:01;;;;;;;10.63;4.32;;;;;;;;;;4909262;28;20115;-75
2022/06/08 03:44:27;;;;;;;;;;;;;;;;;;4963260;28;20038;-75
2022/06/08 03:47:06;;;;;;;11.23;4.13;;;;;;;;;;4988954;28;19913;-77
2022/06/08 03:49:34;;;;;;;12.00;4.30;;;;;;;;;;4978509;28;20070;-77
2022/06/08 03:52:02;;;;;;;13.38;4.68;;;;;;;;;;4970730;28;20155;-76
2022/06/08 03:54:32;;;;;;;13.07;5.00;;;;;;;;;;4987665;28;20334;-77
2022/06/08 03:57:03;;;;;;;14.60;4.68;;;;;;;;;;4969145;28;20034;-75
2022/06/08 03:59:33;;;;;;;12.75;4.90;;;;;;;;;;4982019;28;20076;-74
2022/06/08 04:02:00;;;;;;;14.43;4.90;;;;;;;;;;4985156;28;20025;-75
2022/06/08 04:04:27;;;;;;;10.60;4.53;;;;;;;;;;4988587;28;20084;-75
2022/06/08 04:06:54;;;;;;;14.10;4.60;;;;;;;;;;4983991;28;20082;-75
2022/06/08 04:09:22;;;;;;;11.32;5.03;;;;;;;;;;4987999;28;20465;-74
2022/06/08 04:11:50;;;;;;;14.45;4.40;;;;;;;;;;4965132;28;21361;-75
2022/06/08 04:14:17;;;;;;;17.55;6.20;;;;;;;;;;4973204;28;20038;-75
2022/06/08 04:16:45;;;;;;;13.63;5.78;;;;;;;;;;4984065;28;20464;-74
2022/06/08 04:19:12;;;;;;;12.68;4.88;;;;;;;;;;4988178;28;20037;-74
2022/06/08 04:21:41;;;;;;;12.18;4.90;;;;;;;;;;4986474;28;20089;-76
2022/06/08 04:24:08;;;;;;;12.23;5.60;;;;;;;;;;4998090;28;20048;-72
2022/06/08 04:26:35;;;;;;;10.80;4.53;;;;;;;;;;4988657;28;20038;-72
2022/06/08 04:29:02;;;;;;;12.23;4.75;;;;;;;;;;4989205;28;20034;-70
2022/06/08 04:31:33;;;;;;;12.85;5.75;;;;;;;;;;4966026;28;20029;-70
2022/06/08 04:34:00;;;;;;;15.07;5.75;;;;;;;;;;4987009;28;20059;-71
2022/06/08 04:36:28;;;;;;;14.90;5.65;;;;;;;;;;4987697;28;20022;-71
2022/06/08 04:38:56;;;;;;;18.25;5.75;;;;;;;;;;4971363;28;20030;-71
2022/06/08 04:41:24;;;;;;;14.98;5.38;;;;;;;;;;4987167;28;20030;-71
2022/06/08 04:43:52;;;;;;;13.23;5.10;;;;;;;;;;4965205;28;20030;-71
2022/06/08 04:46:20;;;;;;;12.20;4.47;;;;;;;;;;4985753;28;20524;-71
2022/06/08 04:48:48;;;;;;;12.80;4.53;;;;;;;;;;4985630;28;20088;-71
2022/06/08 04:51:16;;;;;;;11.52;4.30;;;;;;;;;;4986842;28;20028;-71
2022/06/08 04:53:44;;;;;;;15.77;4.72;;;;;;;;;;4980590;28;20123;-70
2022/06/08 04:56:10;;;;;;;15.93;4.85;;;;;;;;;;4985789;28;20426;-74
2022/06/08 04:58:37;;;;;;;13.98;4.22;;;;;;;;;;4965746;28;20258;-72
2022/06/08 05:01:04;;;;;;;19.45;5.20;;;;;;;;;;4989089;28;20033;-70
2022/06/08 05:03:30;;;;;;;12.95;4.57;;;;;;;;;;4981063;28;20049;-71
2022/06/08 05:05:57;;;;;;;13.35;4.63;;;;;;;;;;4985114;28;20058;-70
2022/06/08 05:08:24;;;;;;;16.27;5.03;;;;;;;;;;4983825;28;20081;-70
2022/06/08 05:10:51;;;;;;;17.33;5.25;;;;;;;;;;4959670;28;20026;-70
2022/06/08 05:13:18;;;;;;;13.55;4.93;;;;;;;;;;4962289;28;20523;-73
2022/06/08 05:15:45;;;;;;;12.80;4.50;;;;;;;;;;4979334;28;20357;-71
2022/06/08 05:18:12;;;;;;;12.23;4.47;;;;;;;;;;4982394;28;20202;-71
2022/06/08 05:20:39;;;;;;;17.50;4.72;;;;;;;;;;4980412;28;20030;-71
2022/06/08 05:23:07;;;;;;;15.38;5.35;;;;;;;;;;4966149;28;20037;-71
2022/06/08 05:25:35;;;;;;;12.70;5.47;;;;;;;;;;4964114;28;20128;-72
2022/06/08 05:28:03;;;;;;;15.23;4.80;;;;;;;;;;4988253;28;20021;-71
2022/06/08 05:30:29;;;;;;;11.73;4.68;;;;;;;;;;4964754;28;20030;-72
2022/06/08 05:32:55;;;;;;;12.98;5.65;;;;;;;;;;4965522;28;20038;-73
2022/06/08 05:35:23;;;;;;;17.67;6.55;;;;;;;;;;4965619;28;20048;-73
2022/06/08 05:37:50;;;;;;;17.10;5.57;;;;;;;;;;4980029;28;20198;-70
2022/06/08 05:40:16;;;;;;;13.70;5.57;;;;;;;;;;4979420;28;20065;-73
2022/06/08 05:42:42;;;;;;;13.00;5.22;;;;;;;;;;4980232;28;20041;-73
2022/06/08 05:45:10;;;;;;;12.80;5.25;;;;;;;;;;4981182;28;20504;-71
2022/06/08 05:47:36;;;;;;;12.60;5.05;;;;;;;;;;4977894;28;20038;-71
2022/06/08 05:50:03;;;;;;;18.90;5.25;;;;;;;;;;4978817;28;20037;-70
2022/06/08 05:52:29;;;;;;;11.23;4.60;;;;;;;;;;4976509;28;20041;-70
2022/06/08 05:54:57;;;;;;;10.80;4.22;;;;;;;;;;4983612;28;20084;-71
2022/06/08 05:57:24;;;;;;;12.40;4.53;;;;;;;;;;4967618;28;20443;-71
2022/06/08 05:59:56;;;;;;;11.90;4.25;;;;;;;;;;4963598;28;20042;-71
2022/06/08 06:02:24;;;;;;;13.80;4.45;;;;;;;;;;4949090;28;20563;-72
2022/06/08 06:04:50;;;;;;;11.18;4.25;;;;;;;;;;4943795;28;20129;-71
2022/06/08 06:07:20;;;;;;;13.93;4.35;;;;;;;;;;4964478;28;20054;-72
2022/06/08 06:09:47;;;;;;;13.60;4.18;;;;;;;;;;4973875;28;20044;-72
2022/06/08 06:12:13;;;;;;;11.90;4.20;;;;;;;;;;4962816;28;20026;-72
2022/06/08 06:14:40;;;;;;;;;;;;;;;;;;4956150;28;20038;-70
2022/06/08 06:17:08;;;;;;;14.00;4.40;;;;;;;;;;4961711;28;20650;-71
2022/06/08 06:19:35;;;;;;;10.98;4.45;;;;;;;;;;4957527;28;20034;-72
2022/06/08 06:22:02;;;;;;;10.93;4.13;;;;;;;;;;4982020;28;20022;-72
2022/06/08 06:24:32;;;;;;;18.40;4.75;;;;;;;;;;4962283;28;20022;-72
2022/06/08 06:27:00;;;;;;;12.65;4.70;;;;;;;;;;4965129;28;20037;-72
2022/06/08 06:29:27;;;;;;;13.93;4.32;;;;;;;;;;4975894;28;20023;-72
2022/06/08 06:31:57;;;;;;;14.82;3.70;;;;;;;;;;4964396;28;20041;-72
2022/06/08 06:34:26;;;;;;;10.95;3.85;;;;;;;;;;4946984;28;20034;-71
2022/06/08 06:36:54;;;;;;;15.57;4.00;;;;;;;;;;4955828;28;20610;-71
2022/06/08 06:39:23;;;;;;;12.98;4.07;;;;;;;;;;4965435;28;20037;-70
2022/06/08 06:41:50;;;;;;;14.07;3.65;;;;;;;;;;4940080;28;20689;-72
2022/06/08 06:44:18;;;;;;;20.92;4.15;;;;;;;;;;4961684;28;21189;-70
2022/06/08 06:46:45;;;;;;;14.20;3.55;;;;;;;;;;4959322;28;20088;-72
2022/06/08 06:49:13;;;;;;;12.45;3.53;;;;;;;;;;4976706;28;20070;-70
2022/06/08 06:51:40;;;;;;;12.25;4.07;;;;;;;;;;4959481;28;20109;-70
2022/06/08 06:54:13;;;;;;;15.77;4.50;;;;;;;;;;4948365;28;20030;-69
2022/06/08 06:56:39;;;;;;;12.25;3.97;;;;;;;;;;4957971;28;20480;-71
2022/06/08 06:59:06;;;;;;;13.50;4.10;;;;;;;;;;4974377;28;20060;-69
2022/06/08 07:01:34;;;;;;;15.00;4.63;;;;;;;;;;4966683;28;20030;-70
2022/06/08 07:04:01;;;;;;;15.88;4.40;;;;;;;;;;4982134;28;20117;-70
2022/06/08 07:06:29;;;;;;;13.52;3.72;;;;;;;;;;4970142;28;20030;-70
2022/06/08 07:08:59;;;;;;;17.45;4.28;;;;;;;;;;4968026;28;20065;-70
2022/06/08 07:11:40;;;;;;;13.38;3.72;;;;;;;;;;4963194;28;20392;-70
2022/06/08 07:14:07;;;;;;;12.57;3.83;;;;;;;;;;4984169;28;20121;-71
2022/06/08 07:16:34;;;;;;;11.80;3.40;;;;;;;;;;4979268;28;20046;-72
2022/06/08 07:19:00;;;;;;;15.55;4.00;;;;;;;;;;4970815;28;20025;-70
2022/06/08 07:21:27;;;;;;;14.90;3.78;;;;;;;;;;4987582;28;20068;-69
2022/06/08 07:23:54;;;;;;;10.63;3.95;;;;;;;;;;4982856;28;20037;-71
2022/06/08 07:26:25;;;;;;;12.40;3.50;;;;;;;;;;4984101;28;20037;-70
2022/06/08 07:28:54;;;;;;;16.80;4.07;;;;;;;;;;4969281;28;20025;-70
2022/06/08 07:31:21;;;;;;;11.77;3.75;;;;;;;;;;4989975;28;20048;-72
2022/06/08 07:33:47;;;;;;;14.50;3.80;;;;;;;;;;4988137;28;21316;-69
2022/06/08 07:36:13;;;;;;;13.57;3.70;;;;;;;;;;4988879;28;20072;-70
2022/06/08 07:38:40;;;;;;;14.18;3.40;;;;;;;;;;4981063;28;20800;-70
2022/06/08 07:41:06;;;;;;;14.35;3.28;;;;;;;;;;4988085;28;20059;-69
2022/06/08 07:43:33;;;;;;;13.65;3.65;;;;;;;;;;4984243;28;20510;-70
2022/06/08 07:45:59;;;;;;;15.50;3.92;;;;;;;;;;4974739;28;20306;-70
2022/06/08 07:51:11;;;;;;;11.48;3.65;;;;;;;;;;4986849;28;20028;-71
2022/06/08 07:53:37;;;;;;;16.13;4.13;;;;;;;;;;4966959;28;20282;-71
2022/06/08 07:56:04;;;;;;;13.40;4.00;;;;;;;;;;4989989;28;20037;-71
2022/06/08 07:58:32;;;;;;;11.07;3.58;;;;;;;;;;4976086;28;20113;-69
2022/06/08 08:00:59;;;;;;;11.98;3.53;;;;;;;;;;4954169;28;20357;-70
2022/06/08 08:03:27;;;;;;;11.75;3.92;;;;;;;;;;4954172;28;20048;-70
2022/06/08 08:05:55;;;;;;;12.20;3.83;;;;;;;;;;4957788;28;20026;-70
2022/06/08 08:08:23;;;;;;;14.35;3.78;;;;;;;;;;4967258;28;20118;-70
2022/06/08 08:10:50;;;;;;;13.18;3.20;;;;;;;;;;4961517;28;20571;-69
2022/06/08 08:13:17;;;;;;;13.82;3.90;;;;;;;;;;4967232;28;20384;-70
2022/06/08 08:15:45;;;;;;;11.82;3.38;;;;;;;;;;4951389;28;20067;-71
2022/06/08 08:18:13;;;;;;;14.73;3.47;;;;;;;;;;4968920;28;20441;-71
2022/06/08 08:20:40;;;;;;;12.73;3.83;;;;;;;;;;4961018;28;20110;-72
2022/06/08 08:23:08;;;;;;;11.90;3.33;;;;;;;;;;4950706;28;20404;-70
2022/06/08 08:25:35;;;;;;;11.30;3.22;;;;;;;;;;4962542;28;20038;-71
2022/06/08 08:28:03;;;;;;;14.63;3.60;;;;;;;;;;4951295;28;20385;-72
2022/06/08 08:30:31;;;;;;;14.05;3.50;;;;;;;;;;4960724;28;20350;-71
2022/06/08 08:32:58;;;;;;;11.02;3.33;;;;;;;;;;4965697;28;20061;-71
2022/06/08 08:35:27;;;;;;;11.15;3.40;;;;;;;;;;4962400;28;20037;-71
2022/06/08 08:37:56;;;;;;;14.45;3.40;;;;;;;;;;4970385;28;20154;-71
2022/06/08 08:40:42;;;;;;;12.95;3.70;;;;;;;;;;4963762;28;20121;-70
2022/06/08 08:43:10;;;;;;;13.00;3.35;;;;;;;;;;4970431;28;20026;-71
2022/06/08 08:45:43;;;;;;;13.45;3.30;;;;;;;;;;4950187;28;20113;-71
2022/06/08 08:48:43;;;;;;;11.68;3.35;;;;;;;;;;4964385;28;20031;-71
2022/06/08 08:51:17;;;;;;;12.98;3.55;;;;;;;;;;4874186;29;20054;-71
2022/06/08 08:53:55;;;;;;;10.55;3.03;;;;;;;;;;4882494;29;20052;-70
2022/06/08 08:56:25;;;;;;;12.30;3.10;;;;;;;;;;4886760;29;20039;-70
2022/06/08 08:58:52;;;;;;;11.30;2.55;;;;;;;;;;4890992;29;20039;-70
2022/06/08 09:01:20;;;;;;;10.95;2.75;;;;;;;;;;4906937;29;20051;-71
2022/06/08 09:03:48;;;;;;;9.93;2.88;;;;;;;;;;4898594;29;20052;-71
2022/06/08 09:06:17;;;;;;;11.32;3.15;;;;;;;;;;4904986;29;20031;-71
2022/06/08 09:08:45;;;;;;;12.68;3.30;;;;;;;;;;4905973;29;20028;-71
2022/06/08 09:11:22;;;;;;;11.10;3.00;;;;;;;;;;4904584;29;20103;-71
2022/06/08 09:13:54;;;;;;;10.43;2.83;;;;;;;;;;4900529;29;21527;-71
2022/06/08 09:16:41;;;;;;;10.00;2.80;;;;;;;;;;4907230;29;20040;-70
2022/06/08 09:19:23;;;;;;;13.02;3.00;;;;;;;;;;4905681;29;20712;-70
2022/06/08 09:21:53;;;;;;;14.60;3.45;;;;;;;;;;4907267;29;20042;-71
2022/06/08 09:24:28;;;;;;;12.80;3.13;;;;;;;;;;4903790;29;20490;-70
2022/06/08 09:27:11;;;;;;;11.33;3.37;;;;;;;;;;4941560;28;20180;-71
2022/06/08 09:29:47;;;;;;;10.80;2.80;;;;;;;;;;4962252;28;20034;-70
2022/06/08 09:32:26;;;;;;;8.52;2.75;;;;;;;;;;4960686;28;20085;-70
2022/06/08 09:34:56;;;;;;;10.02;2.85;;;;;;;;;;4964721;28;20038;-71
2022/06/08 09:37:29;;;;;;;10.25;2.60;;;;;;;;;;4965547;28;20590;-70
2022/06/08 09:40:01;;;;;;;11.90;2.90;;;;;;;;;;4967748;28;20034;-71
2022/06/08 09:42:36;;;;;;;12.07;2.78;;;;;;;;;;4957407;28;20489;-72
2022/06/08 09:45:05;;;;;;;14.65;3.10;;;;;;;;;;4967790;28;20089;-70
2022/06/08 09:53:16;;;;;;;13.18;2.58;;;;;;;;;;4966194;28;20077;-70
2022/06/08 09:56:03;;;;;;;14.75;3.28;;;;;;;;;;4970768;28;20042;-72
2022/06/08 09:58:38;;;;;;;10.13;2.42;;;;;;;;;;4966911;28;20132;-70
2022/06/08 10:01:18;;;;;;;10.98;2.60;;;;;;;;;;4976080;28;20033;-71
2022/06/08 10:04:05;;;;;;;10.48;2.58;;;;;;;;;;4941445;28;20200;-69
2022/06/08 10:06:47;;;;;;;10.25;2.53;;;;;;;;;;4964981;28;20085;-68
2022/06/08 10:09:32;;;;;;;10.90;2.38;;;;;;;;;;4959292;28;20064;-71
2022/06/08 10:12:18;;;;;;;12.60;2.33;;;;;;;;;;4950543;28;20030;-71
2022/06/08 10:15:08;;;;;;;10.00;2.20;;;;;;;;;;4941736;28;20487;-71
2022/06/08 10:17:35;;;;;;;12.77;2.42;;;;;;;;;;4939547;28;20034;-70
2022/06/08 10:20:12;;;;;;;9.32;2.33;;;;;;;;;;4963271;28;20785;-70
2022/06/08 10:22:45;;;;;;;10.43;2.40;;;;;;;;;;4947519;28;20039;-70
2022/06/08 10:25:30;;;;;;;9.27;2.40;;;;;;;;;;4962473;28;20027;-70
2022/06/08 10:28:10;;;;;;;12.70;2.42;;;;;;;;;;4966108;28;20626;-70
2022/06/08 10:30:57;;;;;;;13.93;2.45;;;;;;;;;;4959401;28;20030;-70
2022/06/08 10:33:37;;;;;;;10.73;2.72;;;;;;;;;;4963438;28;20105;-70
2022/06/08 10:36:05;;;;;;;9.73;2.10;;;;;;;;;;4952031;28;20026;-70
2022/06/08 10:38:37;;;;;;;11.15;2.58;;;;;;;;;;4962427;28;20053;-69
2022/06/08 10:44:24;;;;;;;11.13;2.90;;;;;;;;;;4960125;28;20053;-70
2022/06/08 10:46:52;;;;;;;12.38;2.47;;;;;;;;;;4963037;28;20046;-69
2022/06/08 10:49:46;;;;;;;13.18;2.80;;;;;;;;;;4963527;28;20038;-72
2022/06/08 10:52:15;;;;;;;11.55;2.22;;;;;;;;;;4948981;28;20027;-69
2022/06/08 10:54:55;;;;;;;10.82;2.83;;;;;;;;;;4949116;28;20037;-70
2022/06/08 10:57:32;;;;;;;12.55;2.72;;;;;;;;;;4951304;28;20030;-70
2022/06/08 11:00:17;;;;;;;13.27;3.30;;;;;;;;;;4984650;28;21346;-70
2022/06/08 11:02:44;;;;;;;12.07;2.92;;;;;;;;;;4979630;28;20038;-70
2022/06/08 11:05:10;;;;;;;9.85;2.65;;;;;;;;;;4974663;28;20037;-69
2022/06/08 11:07:56;;;;;;;10.90;2.55;;;;;;;;;;4973694;28;20149;-70
2022/06/08 11:10:53;;;;;;;11.25;2.60;;;;;;;;;;4969961;28;20065;-70
2022/06/08 11:13:25;;;;;;;11.57;2.80;;;;;;;;;;4985601;28;20030;-70
2022/06/08 11:15:54;;;;;;;12.10;2.83;;;;;;;;;;4961209;28;20583;-70
2022/06/08 11:18:32;;;;;;;11.55;2.75;;;;;;;;;;4985482;28;20033;-70
2022/06/08 11:21:07;;;;;;;9.90;2.65;;;;;;;;;;4985223;28;20562;-71
2022/06/08 11:23:33;;;;;;;11.27;2.90;;;;;;;;;;4989448;28;20045;-70
2022/06/08 11:26:05;;;;;;;16.85;2.90;;;;;;;;;;4986365;28;20034;-70
2022/06/08 11:28:40;;;;;;;10.50;2.67;;;;;;;;;;4989282;28;20029;-71
2022/06/08 11:31:11;;;;;;;9.68;2.45;;;;;;;;;;4985437;28;20061;-69
2022/06/08 11:33:56;;;;;;;11.80;2.70;;;;;;;;;;4972290;28;20073;-70
2022/06/08 11:36:52;;;;;;;10.45;2.38;;;;;;;;;;4981852;28;20060;-70
2022/06/08 11:39:27;;;;;;;13.88;2.60;;;;;;;;;;4909952;29;20031;-70
2022/06/08 11:42:13;;;;;;;12.33;2.80;;;;;;;;;;4911931;29;20479;-70
2022/06/08 11:44:45;;;;;;;14.73;2.60;;;;;;;;;;4893468;29;20052;-72
2022/06/08 11:47:17;;;;;;;10.32;2.28;;;;;;;;;;4910649;29;20068;-71
2022/06/08 11:49:44;;;;;;;10.18;2.20;;;;;;;;;;4906818;29;20546;-71
2022/06/08 11:52:24;;;;;;;9.20;2.30;;;;;;;;;;4908719;29;20426;-71
2022/06/08 11:55:19;;;;;;;10.20;2.13;;;;;;;;;;4906703;29;20547;-69
2022/06/08 11:57:48;;;;;;;11.93;2.72;;;;;;;;;;4883919;29;20181;-72
2022/06/08 12:00:30;;;;;;;10.88;2.53;;;;;;;;;;4888103;29;20044;-70
2022/06/08 12:02:59;;;;;;;12.35;2.47;;;;;;;;;;4886850;29;20048;-70
2022/06/08 12:05:31;;;;;;;13.48;2.60;;;;;;;;;;4889601;29;20040;-70
2022/06/08 12:08:01;;;;;;;9.38;2.55;;;;;;;;;;4874024;29;20042;-70
2022/06/08 12:10:31;;;;;;;10.95;2.40;;;;;;;;;;4890542;29;20454;-70
2022/06/08 12:13:03;;;;;;;11.85;2.72;;;;;;;;;;4890955;29;20093;-70
2022/06/08 12:16:02;;;;;;;11.45;2.67;;;;;;;;;;4893877;29;20070;-70
2022/06/08 12:18:38;;;;;;;11.40;2.42;;;;;;;;;;4908699;28;20074;-70
2022/06/08 12:21:19;;;;;;;11.23;2.42;;;;;;;;;;4929256;28;20054;-71
2022/06/08 12:24:17;;;;;;;12.02;2.45;;;;;;;;;;4923717;28;20540;-72
2022/06/08 12:26:56;;;;;;;10.02;2.40;;;;;;;;;;4920861;28;20071;-71
2022/06/08 12:29:47;;;;;;;12.02;2.60;;;;;;;;;;4915827;29;20055;-70
2022/06/08 12:32:20;;;;;;;13.13;2.78;;;;;;;;;;4928228;28;20349;-71
2022/06/08 12:35:01;;;;;;;11.77;2.85;;;;;;;;;;4945090;28;20446;-72
2022/06/08 12:37:34;;;;;;;9.98;2.65;;;;;;;;;;4972940;28;20122;-70
2022/06/08 12:40:22;;;;;;;15.50;3.05;;;;;;;;;;4985536;28;20036;-71
2022/06/08 12:42:55;;;;;;;12.35;3.00;;;;;;;;;;4967779;28;20541;-71
2022/06/08 12:45:36;;;;;;;12.98;2.67;;;;;;;;;;4981555;28;20030;-71
2022/06/08 12:48:26;;;;;;;9.90;2.65;;;;;;;;;;4982739;28;20589;-72
2022/06/08 12:50:55;;;;;;;11.75;2.85;;;;;;;;;;4982608;28;20132;-71
2022/06/08 12:53:33;;;;;;;11.52;2.83;;;;;;;;;;4982105;28;20236;-72
2022/06/08 12:56:00;;;;;;;13.88;2.92;;;;;;;;;;4969639;28;20607;-70
2022/06/08 12:58:26;;;;;;;11.05;2.90;;;;;;;;;;4980184;28;20073;-70
2022/06/08 13:00:54;;;;;;;11.50;2.70;;;;;;;;;;4984461;28;20153;-77
2022/06/08 13:03:22;;;;;;;12.77;3.25;;;;;;;;;;4986255;28;20073;-72
2022/06/08 13:05:51;;;;;;;12.35;2.80;;;;;;;;;;4982828;28;21681;-72
2022/06/08 13:08:20;;;;;;;12.52;3.20;;;;;;;;;;4971550;28;20036;-76
2022/06/08 13:10:48;;;;;;;10.90;2.63;;;;;;;;;;4983637;28;20030;-76
2022/06/08 13:13:19;;;;;;;12.05;2.38;;;;;;;;;;4981492;28;20361;-78
2022/06/08 13:15:48;;;;;;;12.15;2.67;;;;;;;;;;4996223;28;20026;-73
2022/06/08 13:18:16;;;;;;;12.23;2.85;;;;;;;;;;4981903;28;20048;-71
2022/06/08 13:20:43;;;;;;;10.43;2.50;;;;;;;;;;4996559;28;20050;-70
2022/06/08 13:23:13;;;;;;;12.45;2.80;;;;;;;;;;4983452;28;20131;-71
2022/06/08 13:25:40;;;;;;;11.23;3.05;;;;;;;;;;4996909;28;20034;-71
2022/06/08 13:28:35;;;;;;;13.02;3.00;;;;;;;;;;4978021;28;20030;-70
2022/06/08 13:31:12;;;;;;;10.25;2.60;;;;;;;;;;4998869;28;20052;-72
2022/06/08 13:33:57;;;;;;;12.20;2.90;;;;;;;;;;4982672;28;20252;-72
2022/06/08 13:36:43;;;;;;;13.55;2.72;;;;;;;;;;5003850;28;20041;-76
2022/06/08 13:39:09;;;;;;;14.98;3.00;;;;;;;;;;5001555;28;20088;-71
2022/06/08 13:42:06;;;;;;;10.82;2.90;;;;;;;;;;4983566;28;20045;-75
2022/06/08 13:44:39;;;;;;;11.85;3.10;;;;;;;;;;5002132;28;20037;-72
2022/06/08 13:47:11;;;;;;;9.90;2.60;;;;;;;;;;5002173;28;20034;-73
2022/06/08 13:49:38;;;;;;;12.52;2.78;;;;;;;;;;4979024;28;20022;-71
2022/06/08 13:52:14;;;;;;;13.63;3.00;;;;;;;;;;4992193;28;20034;-71
2022/06/08 13:54:44;;;;;;;11.73;2.90;;;;;;;;;;4978803;28;20044;-71
2022/06/08 13:57:12;;;;;;;13.50;2.95;;;;;;;;;;4999271;28;20034;-73
2022/06/08 13:59:41;;;;;;;12.27;2.88;;;;;;;;;;4977612;28;20049;-73
2022/06/08 14:02:30;;;;;;;12.98;3.10;;;;;;;;;;5000899;28;20057;-72
2022/06/08 14:04:58;;;;;;;12.05;2.72;;;;;;;;;;4975933;28;20064;-73
2022/06/08 14:13:21;;;;;;;14.68;3.38;;;;;;;;;;4997818;28;20119;-74
2022/06/08 14:15:54;;;;;;;12.55;2.58;;;;;;;;;;4980226;28;20076;-72
2022/06/08 14:18:27;;;;;;;14.00;3.53;;;;;;;;;;4973782;28;20028;-71
2022/06/08 14:20:54;;;;;;;14.10;3.53;;;;;;;;;;4993178;28;20443;-72
2022/06/08 14:23:23;;;;;;;10.57;2.90;;;;;;;;;;4980989;28;20094;-74
2022/06/08 14:25:53;;;;;;;13.93;2.85;;;;;;;;;;4992109;28;20122;-72
2022/06/08 14:28:20;;;;;;;10.80;2.65;;;;;;;;;;4984276;28;20959;-73
2022/06/08 14:30:47;;;;;;;11.07;2.97;;;;;;;;;;4985518;28;20037;-73
2022/06/08 14:33:25;;;;;;;11.02;2.75;;;;;;;;;;4998131;28;20140;-71
2022/06/08 14:35:55;;;;;;;10.85;2.90;;;;;;;;;;5003376;28;20034;-70
2022/06/08 14:38:25;;;;;;;12.13;2.72;;;;;;;;;;4997055;28;20120;-72
2022/06/08 14:40:59;;;;;;;15.35;3.10;;;;;;;;;;4980922;28;20777;-71
2022/06/08 14:43:27;;;;;;;15.40;3.30;;;;;;;;;;4986127;28;20030;-76
2022/06/08 14:46:00;;;;;;;14.40;2.85;;;;;;;;;;4985143;28;20046;-71
2022/06/08 14:48:32;;;;;;;12.15;3.05;;;;;;;;;;4986242;28;20477;-70
2022/06/08 14:51:02;;;;;;;10.45;3.28;;;;;;;;;;5010100;28;20030;-76
2022/06/08 14:53:36;;;;;;;15.60;3.45;;;;;;;;;;4988151;28;20050;-74
2022/06/08 14:56:24;;;;;;;13.63;3.17;;;;;;;;;;5001235;28;20030;-76
2022/06/08 14:58:54;;;;;;;13.48;2.97;;;;;;;;;;4981477;28;20840;-74
2022/06/08 15:01:26;;;;;;;10.57;2.78;;;;;;;;;;4989160;28;20031;-77
2022/06/08 15:03:53;;;;;;;10.40;2.75;;;;;;;;;;4948425;28;20054;-71
2022/06/08 15:06:21;;;;;;;13.68;3.00;;;;;;;;;;4968657;28;20037;-70
2022/06/08 15:08:47;;;;;;;12.98;2.70;;;;;;;;;;4970503;28;20129;-70
2022/06/08 15:14:23;;;;;;;12.60;2.78;;;;;;;;;;4973983;28;20049;-70
2022/06/08 15:16:51;;;;;;;13.70;2.78;;;;;;;;;;4968291;28;20034;-70
2022/06/08 15:19:19;;;;;;;13.02;3.10;;;;;;;;;;4976027;28;20038;-72
2022/06/08 15:21:45;;;;;;;12.10;2.70;;;;;;;;;;4941381;28;20049;-70
2022/06/08 15:24:12;;;;;;;11.80;2.85;;;;;;;;;;4973198;28;20034;-72